Terminal Aerodrome Forecast
Issued by NWS

Home | Current Version | Previous Version | Graphics & Text | Print | Product List | Glossary On
Versions: 1 2 3 4 5 6 7 8 9 10 11 12 13 14 15 16 17 18 19 20 21 22 23 24 25 26
726
FTUS43 KABR 282131 AAA
TAFATY
TAF AMD
KATY 282131Z 2822/2918 05010KT 2SM -RASN BR OVC010
     FM282300 05011KT P6SM OVC015
     FM290300 06007KT P6SM OVC035
      TEMPO 2908/2912 1/2SM FG
     FM291200 VRB04KT 3SM BR OVC020
     FM291400 06006KT P6SM BKN050
     FM291700 07010KT P6SM BKN050=

USA.gov is the U.S. government's official web portal to all federal, state and local government web resources and services.